Time;durP1;ratioP1;P1;durP2;ratioP2;P2;SDS_P1;SDS_P2;PMS_P1;PMS_P2;Temp;Humidity;BMP_temperature;BMP_pressure;BME280_temperature;BME280_humidity;BME280_pressure;Samples;Min_cycle;Max_cycle;Signal;HPM_P1;HPM_P2
2023/10/03 00:00:34;;;;;;;;;;;;;;;15.37;100.00;96702.59;5063377;28;20129;-77
2023/10/03 00:03:00;;;;;;;;;;;;;;;15.35;100.00;96707.31;5064239;28;19927;-76
2023/10/03 00:05:34;;;;;;;;;;;;;;;15.34;100.00;96701.22;5063286;28;19958;-77
2023/10/03 00:08:01;;;;;;;;;;;;;;;15.31;100.00;96698.28;5063620;28;19929;-76
2023/10/03 00:10:30;;;;;;;;;;;;;;;15.30;100.00;96699.31;5062470;28;20121;-77
2023/10/03 00:12:56;;;;;;;;;;;;;;;15.27;100.00;96692.69;5064552;28;19942;-76
2023/10/03 00:15:26;;;;;;;;;;;;;;;15.25;100.00;96696.63;5066864;28;20273;-76
2023/10/03 00:17:52;;;;;;;;;;;;;;;15.22;100.00;96682.00;5066802;28;20201;-77
2023/10/03 00:20:18;;;;;;;;;;;;;;;15.21;100.00;96683.06;5066832;28;19937;-76
2023/10/03 00:22:44;;;;;;;;;;;;;;;15.18;100.00;96681.72;5067311;28;20110;-77
2023/10/03 00:25:23;;;;;;;;;;;;;;;15.15;100.00;96684.81;5066330;28;20132;-76
2023/10/03 00:27:50;;;;;;;;;;;;;;;15.13;100.00;96681.63;5066927;28;19937;-77
2023/10/03 00:30:19;;;;;;;;;;;;;;;15.11;100.00;96682.91;5066596;28;19941;-77
2023/10/03 00:32:49;;;;;;;;;;;;;;;15.09;100.00;96683.16;5065462;28;19931;-76
2023/10/03 00:35:15;;;;;;;;;;;;;;;15.05;100.00;96675.94;5066449;28;20285;-76
2023/10/03 00:37:44;;;;;;;;;;;;;;;15.03;100.00;96670.91;5066465;28;20124;-77
2023/10/03 00:42:48;;;;;;;;;;;;;;;14.97;100.00;96669.22;5066022;28;19946;-78
2023/10/03 00:45:19;;;;;;;;;;;;;;;14.94;100.00;96667.06;5065975;28;19961;-76
2023/10/03 00:47:47;;;;;;;;;;;;;;;14.92;100.00;96663.88;5066364;28;19964;-76
2023/10/03 00:50:15;;;;;;;;;;;;;;;14.89;100.00;96662.50;5066332;28;19935;-77
2023/10/03 00:52:42;;;;;;;;;;;;;;;14.87;100.00;96661.94;5066198;28;19937;-77
2023/10/03 00:55:11;;;;;;;;;;;;;;;14.86;100.00;96648.97;5066680;28;19937;-77
2023/10/03 00:57:37;;;;;;;;;;;;;;;14.85;100.00;96652.69;5066054;28;19932;-77
2023/10/03 01:00:14;;;;;;;;;;;;;;;14.83;100.00;96652.91;5066015;28;20216;-77
2023/10/03 01:02:48;;;;;;;;;;;;;;;14.82;100.00;96646.00;5066803;28;19929;-76
2023/10/03 01:05:16;;;;;;;;;;;;;;;14.80;100.00;96650.72;5065910;28;20253;-77
2023/10/03 01:07:44;;;;;;;;;;;;;;;14.78;100.00;96653.63;5065870;28;19930;-76
2023/10/03 01:10:17;;;;;;;;;;;;;;;14.75;100.00;96646.16;5065822;28;19936;-77
2023/10/03 01:12:44;;;;;;;;;;;;;;;14.74;100.00;96647.22;5065838;28;20229;-76
2023/10/03 01:15:12;;;;;;;;;;;;;;;14.74;100.00;96646.41;5066558;28;20114;-76
2023/10/03 01:17:38;;;;;;;;;;;;;;;14.71;100.00;96645.03;5065702;28;20229;-77
2023/10/03 01:20:16;;;;;;;;;;;;;;;14.71;100.00;96646.91;5065681;28;19939;-76
2023/10/03 01:22:46;;;;;;;;;;;;;;;14.68;100.00;96645.53;5066158;28;19938;-77
2023/10/03 01:25:12;;;;;;;;;;;;;;;14.65;100.00;96638.09;5064555;28;20138;-77
2023/10/03 01:27:39;;;;;;;;;;;;;;;14.64;100.00;96647.06;5065510;28;20227;-76
2023/10/03 01:30:06;;;;;;;;;;;;;;;14.63;100.00;96634.88;5065471;28;19937;-77
2023/10/03 01:32:34;;;;;;;;;;;;;;;14.61;100.00;96642.25;5065418;28;19935;-77
2023/10/03 01:35:05;;;;;;;;;;;;;;;14.59;100.00;96636.41;5065258;28;19950;-76
2023/10/03 01:37:31;;;;;;;;;;;;;;;14.56;100.00;96635.03;5066093;28;19936;-77
2023/10/03 01:39:57;;;;;;;;;;;;;;;14.54;100.00;96634.44;5065283;28;19939;-77
2023/10/03 01:42:23;;;;;;;;;;;;;;;14.53;100.00;96624.13;5066038;28;19940;-76
2023/10/03 01:44:50;;;;;;;;;;;;;;;14.51;100.00;96626.19;5065069;28;19933;-77
2023/10/03 01:47:16;;;;;;;;;;;;;;;14.50;100.00;96621.97;5065402;28;19958;-77
2023/10/03 01:49:42;;;;;;;;;;;;;;;14.50;100.00;96624.59;5065063;28;19940;-76
2023/10/03 01:52:08;;;;;;;;;;;;;;;14.46;100.00;96624.28;5065065;28;19927;-78
2023/10/03 01:54:34;;;;;;;;;;;;;;;14.42;100.00;96620.50;5065044;28;19935;-78
2023/10/03 01:57:01;;;;;;;;;;;;;;;14.37;100.00;96623.88;5065464;28;19938;-77
2023/10/03 01:59:26;;;;;;;;;;;;;;;14.35;100.00;96612.75;5064912;28;19944;-76
2023/10/03 02:01:52;;;;;;;;;;;;;;;14.33;100.00;96609.56;5064917;28;20116;-77
2023/10/03 02:04:18;;;;;;;;;;;;;;;14.31;100.00;96618.75;5064869;28;19929;-76
2023/10/03 02:06:44;;;;;;;;;;;;;;;14.30;100.00;96609.22;5064696;28;20019;-77
2023/10/03 02:09:10;;;;;;;;;;;;;;;14.30;100.00;96611.84;5064727;28;19934;-77
2023/10/03 02:11:37;;;;;;;;;;;;;;;14.29;100.00;96616.34;5064696;28;19969;-77
2023/10/03 02:14:06;;;;;;;;;;;;;;;14.27;100.00;96607.84;5063562;28;19948;-76
2023/10/03 02:16:36;;;;;;;;;;;;;;;14.28;100.00;96614.75;5064607;28;19929;-76
2023/10/03 02:19:02;;;;;;;;;;;;;;;14.28;100.00;96612.09;5064796;28;19943;-77
2023/10/03 02:21:28;;;;;;;;;;;;;;;14.30;100.00;96611.84;5064568;28;19930;-76
2023/10/03 02:23:53;;;;;;;;;;;;;;;14.31;100.00;96606.34;5065016;28;19972;-77
2023/10/03 02:26:20;;;;;;;;;;;;;;;14.31;100.00;96597.63;5063330;28;19922;-76
2023/10/03 02:28:46;;;;;;;;;;;;;;;14.33;100.00;96590.28;5064400;28;19934;-77
2023/10/03 02:31:11;;;;;;;;;;;;;;;14.34;100.00;96591.88;5064362;28;19940;-76
2023/10/03 02:33:40;;;;;;;;;;;;;;;14.34;100.00;96590.06;5064871;28;20227;-76
2023/10/03 02:36:08;;;;;;;;;;;;;;;14.35;100.00;96582.94;5064078;28;20140;-77
2023/10/03 02:38:36;;;;;;;;;;;;;;;14.34;100.00;96574.22;5064158;28;19929;-78
2023/10/03 02:41:02;;;;;;;;;;;;;;;14.36;100.00;96580.06;5064220;28;20116;-76
2023/10/03 02:43:34;;;;;;;;;;;;;;;14.37;100.00;96575.59;5064714;28;20207;-76
2023/10/03 02:46:00;;;;;;;;;;;;;;;14.37;100.00;96572.94;5064092;28;19945;-77
2023/10/03 02:48:26;;;;;;;;;;;;;;;14.38;100.00;96569.25;5063986;28;19961;-76
2023/10/03 02:50:52;;;;;;;;;;;;;;;14.39;100.00;96563.75;5063723;28;19941;-77
2023/10/03 02:53:22;;;;;;;;;;;;;;;14.39;100.00;96563.75;5063986;28;20002;-77
2023/10/03 02:55:51;;;;;;;;;;;;;;;14.39;100.00;96566.38;5064843;28;19931;-77
2023/10/03 02:58:19;;;;;;;;;;;;;;;14.40;100.00;96573.28;5063995;28;19950;-77
2023/10/03 03:00:49;;;;;;;;;;;;;;;14.40;100.00;96572.47;5063988;28;19936;-77
2023/10/03 03:03:15;;;;;;;;;;;;;;;14.40;100.00;96572.47;5064490;28;19940;-77
2023/10/03 03:05:42;;;;;;;;;;;;;;;14.40;100.00;96568.00;5064584;28;20240;-77
2023/10/03 03:08:28;;;;;;;;;;;;;;;14.39;100.00;96568.22;5063752;28;19927;-77
2023/10/03 03:10:56;;;;;;;;;;;;;;;14.37;100.00;96565.81;5064421;28;19927;-77
2023/10/03 03:13:26;;;;;;;;;;;;;;;14.37;100.00;96563.19;5063809;28;19940;-76
2023/10/03 03:15:59;;;;;;;;;;;;;;;14.38;100.00;96567.44;5064592;28;20117;-77
2023/10/03 03:18:26;;;;;;;;;;;;;;;14.40;100.00;96573.28;5063861;28;20212;-76
2023/10/03 03:20:57;;;;;;;;;;;;;;;14.44;100.00;96572.78;5064375;28;20135;-77
2023/10/03 03:23:36;;;;;;;;;;;;;;;14.47;100.00;96569.66;5063828;28;19942;-76
2023/10/03 03:26:14;;;;;;;;;;;;;;;14.47;100.00;96575.75;5063666;28;19951;-76
2023/10/03 03:28:41;;;;;;;;;;;;;;;14.50;100.00;96580.53;5063714;28;19932;-77
2023/10/03 03:31:16;;;;;;;;;;;;;;;14.51;100.00;96571.59;5063671;28;20216;-77
2023/10/03 03:33:45;;;;;;;;;;;;;;;14.51;100.00;96576.06;5064169;28;19936;-77
2023/10/03 03:36:22;;;;;;;;;;;;;;;14.50;100.00;96580.53;5063569;28;19953;-77
2023/10/03 03:38:49;;;;;;;;;;;;;;;14.50;100.00;96579.75;5064405;28;20190;-77
2023/10/03 03:41:15;;;;;;;;;;;;;;;14.49;100.00;96576.31;5064426;28;19932;-76
2023/10/03 03:43:42;;;;;;;;;;;;;;;14.49;100.00;96576.31;5063502;28;20151;-77
2023/10/03 03:46:09;;;;;;;;;;;;;;;14.49;100.00;96578.13;5064245;28;19946;-76
2023/10/03 03:48:36;;;;;;;;;;;;;;;14.49;100.00;96570.22;5064071;28;20161;-78
2023/10/03 03:51:05;;;;;;;;;;;;;;;14.50;100.00;96582.38;5068189;28;19936;-77
2023/10/03 03:53:31;;;;;;;;;;;;;;;14.51;100.00;96578.69;5067273;28;19929;-78
2023/10/03 03:55:58;;;;;;;;;;;;;;;14.52;100.00;96575.81;5067285;28;19942;-77
2023/10/03 03:58:24;;;;;;;;;;;;;;;14.54;100.00;96580.88;5067226;28;19935;-77
2023/10/03 04:00:53;;;;;;;;;;;;;;;14.56;100.00;96584.09;5067973;28;19936;-78
2023/10/03 04:03:23;;;;;;;;;;;;;;;14.57;100.00;96573.31;5066024;28;20114;-77
2023/10/03 04:05:49;;;;;;;;;;;;;;;14.60;100.00;96572.03;5067503;28;19956;-77
2023/10/03 04:08:16;;;;;;;;;;;;;;;14.63;100.00;96568.91;5067345;28;19935;-77
2023/10/03 04:10:43;;;;;;;;;;;;;;;14.64;100.00;96575.78;5067049;28;19963;-77
2023/10/03 04:13:14;;;;;;;;;;;;;;;14.65;100.00;96564.19;5067767;28;19936;-77
2023/10/03 04:15:40;;;;;;;;;;;;;;;14.67;100.00;96575.28;5067019;28;19939;-76
2023/10/03 04:18:07;;;;;;;;;;;;;;;14.67;100.00;96567.38;5066889;28;19932;-76
2023/10/03 04:20:35;;;;;;;;;;;;;;;14.69;100.00;96567.94;5067613;28;19940;-77
2023/10/03 04:23:06;;;;;;;;;;;;;;;14.70;100.00;96560.81;5067625;28;19933;-76
2023/10/03 04:25:33;;;;;;;;;;;;;;;14.70;100.00;96556.34;5066669;28;19934;-77
2023/10/03 04:28:00;;;;;;;;;;;;;;;14.70;100.00;96556.34;5066753;28;19940;-76
2023/10/03 04:30:27;;;;;;;;;;;;;;;14.71;100.00;96559.78;5048939;28;19938;-76
2023/10/03 04:32:53;;;;;;;;;;;;;;;14.72;100.00;96571.94;5066231;28;19956;-77
2023/10/03 04:35:19;;;;;;;;;;;;;;;14.70;100.00;96559.00;5066477;28;20269;-77
2023/10/03 04:37:52;;;;;;;;;;;;;;;14.70;100.00;96572.19;5066480;28;19935;-76
2023/10/03 04:40:22;;;;;;;;;;;;;;;14.71;100.00;96565.06;5066124;28;19939;-77
2023/10/03 04:42:49;;;;;;;;;;;;;;;14.69;100.00;96565.28;5066364;28;19937;-76
2023/10/03 04:45:15;;;;;;;;;;;;;;;14.68;100.00;96553.16;5067157;28;19936;-77
2023/10/03 04:47:41;;;;;;;;;;;;;;;14.69;100.00;96553.94;5066062;28;20323;-76
2023/10/03 04:50:08;;;;;;;;;;;;;;;14.70;100.00;96553.72;5066856;28;19932;-76
2023/10/03 04:52:34;;;;;;;;;;;;;;;14.71;100.00;96549.22;5066236;28;19927;-77
2023/10/03 04:55:00;;;;;;;;;;;;;;;14.70;100.00;96551.06;5066673;28;20211;-77
2023/10/03 04:57:28;;;;;;;;;;;;;;;14.70;100.00;96553.72;5066931;28;19946;-76
2023/10/03 04:59:59;;;;;;;;;;;;;;;14.71;100.00;96555.28;5066045;28;19935;-77
2023/10/03 05:02:28;;;;;;;;;;;;;;;14.70;100.00;96558.16;5065688;28;20215;-77
2023/10/03 05:04:54;;;;;;;;;;;;;;;14.70;100.00;96563.44;5064927;28;19924;-77
2023/10/03 05:07:23;;;;;;;;;;;;;;;14.70;100.00;96564.28;5065877;28;20247;-76
2023/10/03 05:09:52;;;;;;;;;;;;;;;14.70;100.00;96558.16;5066395;28;19937;-77
2023/10/03 05:12:18;;;;;;;;;;;;;;;14.69;100.00;96567.94;5065876;28;19948;-76
2023/10/03 05:14:46;;;;;;;;;;;;;;;14.69;100.00;96561.88;5065807;28;19938;-77
2023/10/03 05:17:15;;;;;;;;;;;;;;;14.68;100.00;96554.97;5066261;28;19936;-77
2023/10/03 05:19:41;;;;;;;;;;;;;;;14.65;100.00;96561.53;5065720;28;20237;-77
2023/10/03 05:22:08;;;;;;;;;;;;;;;14.63;100.00;96557.53;5066484;28;20086;-77
2023/10/03 05:24:35;;;;;;;;;;;;;;;14.61;100.00;96555.97;5065255;28;19949;-76
2023/10/03 05:27:00;;;;;;;;;;;;;;;14.60;100.00;96556.97;5065506;28;19956;-77
2023/10/03 05:29:27;;;;;;;;;;;;;;;14.57;100.00;96562.75;5065482;28;20025;-76
2023/10/03 05:31:54;;;;;;;;;;;;;;;14.57;100.00;96562.75;5065509;28;19941;-77
2023/10/03 05:34:23;;;;;;;;;;;;;;;14.55;100.00;96558.69;5064280;28;19959;-76
2023/10/03 05:36:49;;;;;;;;;;;;;;;14.54;100.00;96560.56;5065867;28;19940;-77
2023/10/03 05:39:15;;;;;;;;;;;;;;;14.53;100.00;96558.97;5065344;28;19938;-77
2023/10/03 05:41:42;;;;;;;;;;;;;;;14.53;100.00;96560.78;5064199;28;19990;-77
2023/10/03 05:44:12;;;;;;;;;;;;;;;14.54;100.00;96570.31;5064976;28;20120;-76
2023/10/03 05:46:42;;;;;;;;;;;;;;;14.55;100.00;96563.97;5065609;28;19972;-77
2023/10/03 05:49:11;;;;;;;;;;;;;;;14.57;100.00;96568.03;5065183;28;19943;-76
2023/10/03 05:51:37;;;;;;;;;;;;;;;14.61;100.00;96563.06;5063918;28;19931;-77
2023/10/03 05:54:05;;;;;;;;;;;;;;;14.66;100.00;96578.16;5064444;28;19979;-76
2023/10/03 05:56:31;;;;;;;;;;;;;;;14.71;100.00;96552.66;5065002;28;20125;-76
2023/10/03 05:59:00;;;;;;;;;;;;;;;14.87;100.00;96556.34;5064944;28;19965;-77
2023/10/03 06:01:26;;;;;;;;;;;;;;;15.00;100.00;96557.84;5065745;28;19938;-76
2023/10/03 06:03:51;;;;;;;;;;;;;;;15.27;100.00;96542.06;5064876;28;20191;-76
2023/10/03 06:06:17;;;;;;;;;;;;;;;15.60;100.00;96549.09;5065039;28;19961;-78
2023/10/03 06:08:48;;;;;;;;;;;;;;;15.88;100.00;96533.28;5064777;28;19938;-76
2023/10/03 06:11:14;;;;;;;;;;;;;;;16.19;100.00;96535.16;5065085;28;19938;-76
2023/10/03 06:13:44;;;;;;;;;;;;;;;16.47;100.00;96529.81;5064695;28;19943;-77
2023/10/03 06:16:14;;;;;;;;;;;;;;;16.72;100.00;96519.41;5063588;28;19933;-77
2023/10/03 06:18:41;;;;;;;;;;;;;;;16.95;100.00;96520.91;5065354;28;19939;-78
2023/10/03 06:21:07;;;;;;;;;;;;;;;17.14;100.00;96523.13;5064567;28;19941;-77
2023/10/03 06:23:33;;;;;;;;;;;;;;;17.31;100.00;96522.94;5063299;28;19940;-77
2023/10/03 06:26:00;;;;;;;;;;;;;;;17.50;100.00;96524.06;5064383;28;19941;-77
2023/10/03 06:28:25;;;;;;;;;;;;;;;17.68;100.00;96516.69;5064453;28;20155;-76
2023/10/03 06:30:52;;;;;;;;;;;;;;;17.87;100.00;96528.47;5064353;28;19935;-76
2023/10/03 06:33:18;;;;;;;;;;;;;;;18.02;100.00;96519.72;5065201;28;19949;-77
2023/10/03 06:35:43;;;;;;;;;;;;;;;18.17;100.00;96508.31;5064231;28;19950;-77
2023/10/03 06:38:10;;;;;;;;;;;;;;;18.32;100.00;96510.97;5064278;28;19963;-76
2023/10/03 06:40:36;;;;;;;;;;;;;;;18.44;100.00;96506.19;5064885;28;19934;-76
2023/10/03 06:43:02;;;;;;;;;;;;;;;18.56;100.00;96511.25;5064227;28;19947;-76
2023/10/03 06:45:29;;;;;;;;;;;;;;;18.63;100.00;96508.31;5063008;28;20127;-77
2023/10/03 06:47:55;;;;;;;;;;;;;;;18.72;99.62;96504.03;5064189;28;19962;-77
2023/10/03 06:50:23;;;;;;;;;;;;;;;18.84;100.00;96515.22;5064169;28;19934;-77
2023/10/03 06:52:49;;;;;;;;;;;;;;;19.00;99.71;96507.19;5064909;28;19941;-77
2023/10/03 06:55:15;;;;;;;;;;;;;;;19.11;98.30;96497.31;5064070;28;19947;-76
2023/10/03 06:57:41;;;;;;;;;;;;;;;19.22;97.29;96499.69;5064068;28;19943;-76
2023/10/03 07:00:13;;;;;;;;;;;;;;;19.30;97.36;96506.31;5063995;28;19938;-76
2023/10/03 07:02:39;;;;;;;;;;;;;;;19.36;93.82;96489.28;5064062;28;19935;-77
2023/10/03 07:05:06;;;;;;;;;;;;;;;19.40;93.82;96492.97;5064010;28;20127;-76
2023/10/03 07:07:33;;;;;;;;;;;;;;;19.44;94.69;96496.69;5063847;28;19953;-76
2023/10/03 07:09:59;;;;;;;;;;;;;;;19.48;93.38;96494.25;5063916;28;19956;-76
2023/10/03 07:12:24;;;;;;;;;;;;;;;19.59;98.07;96522.41;5064394;28;19933;-76
2023/10/03 07:14:50;;;;;;;;;;;;;;;19.70;94.67;96509.03;5063873;28;20217;-76
2023/10/03 07:17:16;;;;;;;;;;;;;;;19.76;94.27;96508.78;5064315;28;20114;-77
2023/10/03 07:19:48;;;;;;;;;;;;;;;19.81;92.70;96492.00;5063816;28;19944;-77
2023/10/03 07:22:15;;;;;;;;;;;;;;;19.89;92.69;96495.94;5063795;28;19944;-77
2023/10/03 07:24:41;;;;;;;;;;;;;;;19.95;90.44;96481.50;5067611;28;19941;-77
2023/10/03 07:27:11;;;;;;;;;;;;;;;20.03;90.78;96489.72;5068373;28;20026;-77
2023/10/03 07:29:42;;;;;;;;;;;;;;;20.03;88.95;96479.06;5068596;28;19933;-76
2023/10/03 07:32:13;;;;;;;;;;;;;;;20.08;88.99;96476.34;5068353;28;19933;-76
2023/10/03 07:34:43;;;;;;;;;;;;;;;20.18;89.02;96480.81;5068163;28;19955;-77
2023/10/03 07:37:09;;;;;;;;;;;;;;;20.25;91.16;96499.91;5067723;28;19937;-76
2023/10/03 07:39:35;;;;;;;;;;;;;;;20.33;92.90;96498.53;5067857;28;20216;-76
2023/10/03 07:42:01;;;;;;;;;;;;;;;20.44;90.84;96494.72;5067631;28;19965;-76
2023/10/03 07:44:27;;;;;;;;;;;;;;;20.52;88.21;96479.22;5068357;28;20101;-76
2023/10/03 07:46:53;;;;;;;;;;;;;;;20.63;88.57;96494.03;5066863;28;19970;-76
2023/10/03 07:49:19;;;;;;;;;;;;;;;20.75;85.31;96467.81;5066155;28;19949;-76
2023/10/03 07:51:45;;;;;;;;;;;;;;;20.89;88.50;96494.56;5066152;28;19936;-76
2023/10/03 07:54:13;;;;;;;;;;;;;;;20.99;85.15;96475.81;5066035;28;19963;-76
2023/10/03 07:56:42;;;;;;;;;;;;;;;21.05;88.00;96495.22;5066816;28;19957;-77
2023/10/03 07:59:08;;;;;;;;;;;;;;;21.13;82.55;96480.47;5066555;28;19936;-76
2023/10/03 08:01:38;;;;;;;;;;;;;;;21.20;82.05;96516.38;5066472;28;19936;-76
2023/10/03 08:04:24;;;;;;;;;;;;;;;21.32;83.91;96531.19;5065912;28;19937;-76
2023/10/03 08:06:49;;;;;;;;;;;;;;;21.42;81.47;96523.91;5065500;28;20224;-76
2023/10/03 08:09:16;;;;;;;;;;;;;;;21.49;81.02;96529.66;5066338;28;19937;-75
2023/10/03 08:11:46;;;;;;;;;;;;;;;21.67;85.60;96543.31;5065850;28;19932;-77
2023/10/03 08:14:13;;;;;;;;;;;;;;;21.84;83.73;96534.84;5064590;28;19946;-76
2023/10/03 08:16:40;;;;;;;;;;;;;;;22.02;86.78;96535.91;5065976;28;19958;-78
2023/10/03 08:19:08;;;;;;;;;;;;;;;22.18;80.68;96523.16;5065719;28;19966;-76
2023/10/03 08:21:35;;;;;;;;;;;;;;;22.33;81.28;96517.59;5065668;28;19937;-76
2023/10/03 08:24:09;;;;;;;;;;;;;;;22.45;80.34;96522.47;5066429;28;20209;-76
2023/10/03 08:26:36;;;;;;;;;;;;;;;22.57;78.23;96514.78;5065573;28;19956;-76
2023/10/03 08:29:05;;;;;;;;;;;;;;;22.73;73.94;96501.16;5065518;28;19945;-76
2023/10/03 08:31:31;;;;;;;;;;;;;;;22.90;73.21;96498.69;5066036;28;19948;-76
2023/10/03 08:33:57;;;;;;;;;;;;;;;23.08;76.85;96521.16;5064988;28;19950;-77
2023/10/03 08:36:27;;;;;;;;;;;;;;;23.24;73.93;96506.38;5065395;28;20216;-75
2023/10/03 08:39:04;;;;;;;;;;;;;;;23.40;73.28;96509.53;5066170;28;20218;-75
2023/10/03 08:41:57;;;;;;;;;;;;;;;23.57;70.89;96514.28;5065407;28;19935;-76
2023/10/03 08:44:24;;;;;;;;;;;;;;;23.68;70.75;96501.47;5063690;28;19938;-76
2023/10/03 08:46:55;;;;;;;;;;;;;;;23.82;74.00;96517.53;5002660;28;1784132;-76
2023/10/03 08:49:25;;;;;;;;;;;;;;;23.94;73.92;96517.81;5066893;28;20028;-76
2023/10/03 08:51:52;;;;;;;;;;;;;;;24.04;70.15;96519.44;5066341;28;19939;-76
2023/10/03 08:54:18;;;;;;;;;;;;;;;24.05;67.79;96513.78;5066265;28;20224;-76
2023/10/03 08:56:44;;;;;;;;;;;;;;;24.05;69.49;96523.72;5066189;28;19923;-77
2023/10/03 08:59:10;;;;;;;;;;;;;;;24.08;69.08;96517.75;5066162;28;19946;-76
2023/10/03 09:01:38;;;;;;;;;;;;;;;24.18;69.13;96525.56;5066949;28;19932;-76
2023/10/03 09:04:07;;;;;;;;;;;;;;;24.27;68.06;96517.56;5066039;28;19937;-76
2023/10/03 09:06:38;;;;;;;;;;;;;;;24.36;65.83;96517.63;5065983;28;19929;-76
2023/10/03 09:09:08;;;;;;;;;;;;;;;24.50;68.03;96531.81;5066012;28;19948;-76
2023/10/03 09:11:37;;;;;;;;;;;;;;;24.62;65.97;96540.09;5066697;28;19950;-76
2023/10/03 09:14:04;;;;;;;;;;;;;;;24.75;65.42;96538.41;5065895;28;19957;-76
2023/10/03 09:16:30;;;;;;;;;;;;;;;24.85;66.20;96534.69;5065809;28;19943;-76
2023/10/03 09:18:56;;;;;;;;;;;;;;;24.94;64.15;96535.53;5065787;28;19934;-77
2023/10/03 09:21:27;;;;;;;;;;;;;;;25.03;66.93;96530.19;5065501;28;19934;-76
2023/10/03 09:24:09;;;;;;;;;;;;;;;25.06;62.70;96530.38;5066167;28;19947;-77
2023/10/03 09:26:45;;;;;;;;;;;;;;;25.05;64.64;96539.53;5066182;28;19987;-76
2023/10/03 09:29:30;;;;;;;;;;;;;;;25.08;63.69;96538.13;5065596;28;20313;-76
2023/10/03 09:32:07;;;;;;;;;;;;;;;25.10;64.07;96541.28;5066098;28;19934;-77
2023/10/03 09:34:34;;;;;;;;;;;;;;;25.04;62.36;96529.09;5066022;28;20011;-77
2023/10/03 09:37:02;;;;;;;;;;;;;;;25.04;63.57;96534.47;5065482;28;20220;-76
2023/10/03 09:39:39;;;;;;;;;;;;;;;25.03;63.44;96535.56;5065722;28;19930;-76
2023/10/03 09:42:17;;;;;;;;;;;;;;;25.03;64.11;96533.69;5066214;28;19934;-76
2023/10/03 09:44:48;;;;;;;;;;;;;;;25.05;65.72;96538.72;5066109;28;19938;-77
2023/10/03 09:47:17;;;;;;;;;;;;;;;25.10;64.09;96541.28;5064387;28;20148;-77
2023/10/03 09:49:43;;;;;;;;;;;;;;;25.15;65.17;96541.13;5065723;28;20140;-77
2023/10/03 09:52:17;;;;;;;;;;;;;;;25.19;64.90;96530.59;5065145;28;19941;-76
2023/10/03 09:54:43;;;;;;;;;;;;;;;25.19;63.85;96530.59;5066015;28;19936;-77
2023/10/03 09:57:18;;;;;;;;;;;;;;;25.14;63.78;96530.75;5065070;28;19946;-77
2023/10/03 09:59:48;;;;;;;;;;;;;;;25.03;65.21;96524.81;5064475;28;20098;-77
2023/10/03 10:02:46;;;;;;;;;;;;;;;24.95;66.43;96518.34;5065815;28;19941;-77
2023/10/03 10:05:19;;;;;;;;;;;;;;;24.88;65.64;96518.78;5064666;28;19939;-76
2023/10/03 10:07:58;;;;;;;;;;;;;;;24.77;65.84;96522.03;5065634;28;19957;-77
2023/10/03 10:10:25;;;;;;;;;;;;;;;24.66;66.71;96510.78;5064851;28;19994;-76
2023/10/03 10:13:04;;;;;;;;;;;;;;;24.59;65.97;96521.13;5064465;28;19934;-76
2023/10/03 10:15:30;;;;;;;;;;;;;;;24.50;66.76;96519.19;5064779;28;19945;-76
2023/10/03 10:17:56;;;;;;;;;;;;;;;24.44;66.21;96509.69;5064945;28;19927;-76
2023/10/03 10:20:37;;;;;;;;;;;;;;;24.39;67.39;96520.50;5065172;28;19939;-76
2023/10/03 10:25:43;;;;;;;;;;;;;;;24.50;69.80;96529.13;5064549;28;20037;-76
2023/10/03 10:28:10;;;;;;;;;;;;;;;24.54;69.34;96510.53;5065265;28;19960;-77
2023/10/03 10:30:38;;;;;;;;;;;;;;;24.60;68.93;96517.38;5064499;28;19929;-76
2023/10/03 10:33:21;;;;;;;;;;;;;;;24.62;68.15;96509.81;5063359;28;19948;-77
2023/10/03 10:35:50;;;;;;;;;;;;;;;24.61;68.30;96510.88;5064351;28;20110;-77
2023/10/03 10:38:16;;;;;;;;;;;;;;;24.60;68.85;96520.81;5064314;28;20114;-76
2023/10/03 10:41:11;;;;;;;;;;;;;;;24.68;67.94;96512.03;5064826;28;20066;-77
2023/10/03 10:43:56;;;;;;;;;;;;;;;24.85;68.45;96518.59;5055574;28;20005;-76
2023/10/03 10:46:44;;;;;;;;;;;;;;;24.96;66.90;96511.84;5064331;28;19939;-76
2023/10/03 10:49:28;;;;;;;;;;;;;;;24.99;67.97;96522.00;5063976;28;19946;-76
2023/10/03 10:51:59;;;;;;;;;;;;;;;25.00;66.90;96522.78;5064959;28;19962;-76
2023/10/03 10:54:25;;;;;;;;;;;;;;;25.06;67.20;96526.91;5064952;28;19937;-76
2023/10/03 10:57:11;;;;;;;;;;;;;;;25.16;65.94;96515.09;5063980;28;19963;-77
2023/10/03 10:59:40;;;;;;;;;;;;;;;25.32;64.39;96527.03;5064016;28;19938;-77
2023/10/03 11:02:20;;;;;;;;;;;;;;;25.56;65.91;96512.41;5064012;28;19940;-76
2023/10/03 11:04:59;;;;;;;;;;;;;;;25.90;64.73;96511.69;5063979;28;19943;-77
2023/10/03 11:07:26;;;;;;;;;;;;;;;26.22;63.41;96521.16;5064126;28;19952;-77
2023/10/03 11:09:54;;;;;;;;;;;;;;;26.37;62.06;96501.06;5063651;28;19938;-76
2023/10/03 11:12:22;;;;;;;;;;;;;;;26.41;62.04;96511.97;5063961;28;19946;-76
2023/10/03 11:14:48;;;;;;;;;;;;;;;26.38;60.64;96508.03;5063889;28;19941;-77
2023/10/03 11:17:15;;;;;;;;;;;;;;;26.27;61.87;96510.28;5063860;28;19936;-77
2023/10/03 11:19:41;;;;;;;;;;;;;;;26.15;61.88;96509.34;5064095;28;19992;-77
2023/10/03 11:22:08;;;;;;;;;;;;;;;26.04;63.10;96523.09;5063817;28;19936;-76
2023/10/03 11:24:37;;;;;;;;;;;;;;;26.01;62.21;96509.47;5063802;28;19934;-77
2023/10/03 11:27:03;;;;;;;;;;;;;;;26.01;63.58;96526.38;5064206;28;20255;-77
2023/10/03 11:29:36;;;;;;;;;;;;;;;26.00;63.15;96518.66;5063820;28;19938;-76
2023/10/03 11:32:02;;;;;;;;;;;;;;;26.05;63.36;96521.19;5064580;28;20218;-76
2023/10/03 11:34:34;;;;;;;;;;;;;;;26.17;63.00;96509.81;5063664;28;19959;-77
2023/10/03 11:37:03;;;;;;;;;;;;;;;26.32;62.91;96510.09;5063733;28;19945;-76
2023/10/03 11:39:35;;;;;;;;;;;;;;;26.49;61.98;96511.97;5063704;28;19934;-76
2023/10/03 11:42:06;;;;;;;;;;;;;;;26.69;61.34;96496.28;5064229;28;20231;-76
2023/10/03 11:44:32;;;;;;;;;;;;;;;26.77;62.04;96514.31;5063638;28;19946;-76
2023/10/03 11:46:58;;;;;;;;;;;;;;;26.82;61.83;96506.06;5063374;28;19959;-76
2023/10/03 11:49:24;;;;;;;;;;;;;;;26.79;61.56;96514.78;5063601;28;19989;-77
2023/10/03 11:51:50;;;;;;;;;;;;;;;26.82;60.76;96514.16;5063801;28;19933;-77
2023/10/03 11:54:16;;;;;;;;;;;;;;;26.85;60.60;96510.03;5064025;28;19941;-76
2023/10/03 11:56:43;;;;;;;;;;;;;;;26.82;60.26;96519.53;5064135;28;19938;-76
2023/10/03 11:59:14;;;;;;;;;;;;;;;26.66;61.14;96529.22;5063503;28;19937;-77
2023/10/03 12:01:42;;;;;;;;;;;;;;;26.55;61.67;96522.56;5064295;28;19960;-77
2023/10/03 12:04:08;;;;;;;;;;;;;;;26.51;62.13;96533.16;5063469;28;19934;-76
2023/10/03 12:06:34;;;;;;;;;;;;;;;26.42;63.07;96543.16;5064241;28;19999;-77
2023/10/03 12:09:00;;;;;;;;;;;;;;;26.27;62.11;96536.34;5064705;28;20305;-77
2023/10/03 12:11:25;;;;;;;;;;;;;;;26.18;63.25;96538.25;5067278;28;19945;-77
2023/10/03 12:13:51;;;;;;;;;;;;;;;26.15;64.03;96536.22;5067590;28;19935;-77
2023/10/03 12:16:17;;;;;;;;;;;;;;;26.06;63.26;96538.88;5067000;28;19935;-77
2023/10/03 12:18:43;;;;;;;;;;;;;;;25.94;65.11;96547.56;5066942;28;19935;-77
2023/10/03 12:21:09;;;;;;;;;;;;;;;25.86;65.33;96557.16;5066947;28;19930;-77
2023/10/03 12:23:36;;;;;;;;;;;;;;;25.75;66.31;96542.47;5066850;28;19938;-77
2023/10/03 12:26:01;;;;;;;;;;;;;;;25.63;66.73;96558.41;5067110;28;20214;-77
2023/10/03 12:28:27;;;;;;;;;;;;;;;25.50;67.05;96568.94;5067478;28;20006;-76
2023/10/03 12:30:54;;;;;;;;;;;;;;;25.31;68.09;96561.13;5067549;28;20203;-77
2023/10/03 12:33:20;;;;;;;;;;;;;;;25.16;67.89;96571.44;5066742;28;19932;-77
2023/10/03 12:35:46;;;;;;;;;;;;;;;24.96;68.81;96576.25;5066535;28;20020;-77
2023/10/03 12:38:15;;;;;;;;;;;;;;;24.79;70.69;96587.66;5066616;28;19940;-77
2023/10/03 12:40:42;;;;;;;;;;;;;;;24.65;69.69;96582.41;5065396;28;19947;-77
2023/10/03 12:43:10;;;;;;;;;;;;;;;24.55;70.34;96579.13;5067355;28;19934;-77
2023/10/03 12:45:36;;;;;;;;;;;;;;;24.43;70.51;96579.66;5065415;28;20247;-76
2023/10/03 12:48:02;;;;;;;;;;;;;;;24.32;72.23;96592.53;5066168;28;19962;-76
2023/10/03 12:50:29;;;;;;;;;;;;;;;24.26;72.30;96601.78;5066374;28;19934;-77
2023/10/03 12:52:57;;;;;;;;;;;;;;;24.17;72.43;96600.88;5066341;28;19929;-76